createdAt,value
2023-04-23T00:01:28.222Z,69.84
2023-04-23T00:03:58.380Z,69.48
2023-04-23T00:06:26.965Z,69.97
2023-04-23T00:08:55.351Z,69.69
2023-04-23T00:11:23.436Z,69.86
2023-04-23T00:13:51.071Z,70.31
2023-04-23T00:16:20.841Z,70.73
2023-04-23T00:18:48.115Z,70.89
2023-04-23T00:21:15.393Z,71.06
2023-04-23T00:23:42.380Z,70.84
2023-04-23T00:26:10.165Z,71.72
2023-04-23T00:28:37.189Z,71.01
2023-04-23T00:31:04.773Z,70.97
2023-04-23T00:33:31.648Z,71.15
2023-04-23T00:35:59.112Z,71.15
2023-04-23T00:38:26.711Z,71.28
2023-04-23T00:40:54.437Z,71.76
2023-04-23T00:43:21.362Z,71.94
2023-04-23T00:45:49.449Z,71.94
2023-04-23T00:48:16.765Z,71.93
2023-04-23T00:50:44.337Z,72.37
2023-04-23T00:53:11.317Z,72.26
2023-04-23T00:55:39.138Z,72.49
2023-04-23T00:58:07.092Z,73.61
2023-04-23T01:00:42.624Z,73.60
2023-04-23T01:03:10.798Z,74.01
2023-04-23T01:05:39.456Z,73.73
2023-04-23T01:08:06.984Z,74.20
2023-04-23T01:10:34.635Z,74.94
2023-04-23T01:13:01.836Z,75.33
2023-04-23T01:15:29.258Z,75.73
2023-04-23T01:17:58.557Z,76.64
2023-04-23T01:20:25.809Z,76.90
2023-04-23T01:22:53.251Z,77.12
2023-04-23T01:25:20.478Z,77.45
2023-04-23T01:27:48.511Z,77.33
2023-04-23T01:30:16.685Z,77.70
2023-04-23T01:32:44.350Z,77.92
2023-04-23T01:35:13.379Z,78.18
2023-04-23T01:37:42.907Z,78.57
2023-04-23T01:40:10.402Z,78.56
2023-04-23T01:42:38.620Z,78.63
2023-04-23T01:45:08.132Z,79.09
2023-04-23T01:47:35.827Z,79.38
2023-04-23T01:50:05.174Z,79.55
2023-04-23T01:52:32.047Z,79.54
2023-04-23T01:54:59.583Z,79.58
2023-04-23T01:57:26.958Z,79.37
2023-04-23T02:00:04.291Z,79.28
2023-04-23T02:02:40.874Z,79.29
2023-04-23T02:05:20.964Z,79.31
2023-04-23T02:07:50.015Z,79.65
2023-04-23T02:10:18.682Z,79.60
2023-04-23T02:12:47.295Z,79.83
2023-04-23T02:15:15.767Z,79.53
2023-04-23T02:17:42.760Z,79.84
2023-04-23T02:20:11.414Z,79.74
2023-04-23T02:22:40.976Z,80.28
2023-04-23T02:25:09.541Z,80.13
2023-04-23T02:27:36.988Z,80.23
2023-04-23T02:30:04.807Z,79.84
2023-04-23T02:32:32.066Z,80.01
2023-04-23T02:35:02.111Z,79.99
2023-04-23T02:37:29.631Z,80.26
2023-04-23T02:39:56.690Z,80.51
2023-04-23T02:42:23.801Z,80.86
2023-04-23T02:44:50.984Z,80.70
2023-04-23T02:47:18.827Z,80.87
2023-04-23T02:49:46.071Z,80.53
2023-04-23T02:52:12.997Z,80.75
2023-04-23T02:54:40.298Z,80.92
2023-04-23T02:57:07.834Z,80.93
2023-04-23T02:59:35.704Z,81.14
2023-04-23T03:02:04.501Z,81.05
2023-04-23T03:04:32.030Z,81.03
2023-04-23T03:06:59.113Z,81.17
2023-04-23T03:09:26.358Z,81.29
2023-04-23T03:11:54.228Z,81.49
2023-04-23T03:14:21.349Z,81.67
2023-04-23T03:16:48.584Z,82.27
2023-04-23T03:19:17.109Z,82.36
2023-04-23T03:21:44.546Z,82.51
2023-04-23T03:24:13.755Z,82.81
2023-04-23T03:26:41.166Z,82.71
2023-04-23T03:29:08.382Z,82.68
2023-04-23T03:31:35.826Z,82.72
2023-04-23T03:34:03.689Z,82.88
2023-04-23T03:36:33.931Z,82.95
2023-04-23T03:39:02.343Z,82.95
2023-04-23T03:41:37.578Z,83.43
2023-04-23T03:44:05.721Z,83.46
2023-04-23T03:46:39.793Z,83.50
2023-04-23T03:49:07.562Z,83.85
2023-04-23T03:51:34.379Z,83.93
2023-04-23T03:54:02.155Z,83.77
2023-04-23T03:56:44.544Z,83.85
2023-04-23T03:59:38.708Z,84.06
2023-04-23T04:02:06.450Z,84.16
2023-04-23T04:04:34.331Z,83.88
2023-04-23T04:07:01.545Z,84.32
2023-04-23T04:09:29.713Z,84.28
2023-04-23T04:12:01.918Z,84.82
2023-04-23T04:14:32.234Z,84.36
2023-04-23T04:16:59.348Z,84.80
2023-04-23T04:19:27.126Z,84.17
2023-04-23T04:21:53.988Z,84.29
2023-04-23T04:24:23.149Z,84.38
2023-04-23T04:26:52.767Z,83.91
2023-04-23T04:29:21.386Z,83.91
2023-04-23T04:31:49.086Z,83.38
2023-04-23T04:34:18.039Z,82.62
2023-04-23T04:36:45.203Z,82.57
2023-04-23T04:39:13.570Z,82.53
2023-04-23T04:41:41.711Z,82.25
2023-04-23T04:44:09.193Z,81.47
2023-04-23T04:46:40.806Z,80.75
2023-04-23T04:49:11.822Z,80.53
2023-04-23T04:51:40.803Z,80.58
2023-04-23T04:54:08.537Z,80.11
2023-04-23T04:56:35.475Z,79.24
2023-04-23T04:59:04.139Z,79.11
2023-04-23T05:01:33.335Z,78.40
2023-04-23T05:04:00.949Z,78.40
2023-04-23T05:06:28.822Z,77.54
2023-04-23T05:08:56.385Z,76.98
2023-04-23T05:11:23.904Z,76.61
2023-04-23T05:13:51.656Z,75.79
2023-04-23T05:16:19.634Z,75.34
2023-04-23T05:18:46.865Z,75.09
2023-04-23T05:21:15.261Z,74.33
2023-04-23T05:23:42.699Z,74.33
2023-04-23T05:26:11.008Z,74.20
2023-04-23T05:28:38.321Z,73.94
2023-04-23T05:31:05.272Z,72.77
2023-04-23T05:33:39.244Z,71.96
2023-04-23T05:36:10.151Z,71.17
2023-04-23T05:38:38.987Z,71.53
2023-04-23T05:41:06.025Z,71.49
2023-04-23T05:43:33.206Z,70.34
2023-04-23T05:46:00.861Z,70.14
2023-04-23T05:48:29.175Z,69.13
2023-04-23T05:50:56.076Z,68.33
2023-04-23T05:53:23.240Z,68.38
2023-04-23T05:55:50.270Z,67.72
2023-04-23T05:58:19.191Z,67.23
2023-04-23T06:00:46.215Z,66.50
2023-04-23T06:03:13.498Z,65.86
2023-04-23T06:05:43.256Z,66.03
2023-04-23T06:08:10.611Z,65.90
2023-04-23T06:10:38.108Z,65.35
2023-04-23T06:13:05.286Z,64.65
2023-04-23T06:15:32.230Z,64.09
2023-04-23T06:17:59.706Z,63.11
2023-04-23T06:20:26.653Z,63.21
2023-04-23T06:22:54.174Z,62.24
2023-04-23T06:25:21.172Z,62.30
2023-04-23T06:27:48.681Z,62.04
2023-04-23T06:30:20.644Z,62.20
2023-04-23T06:32:48.168Z,61.44
2023-04-23T06:35:15.189Z,61.78
2023-04-23T06:37:43.107Z,61.04
2023-04-23T06:40:11.257Z,60.27
2023-04-23T06:42:39.289Z,59.73
2023-04-23T06:45:24.858Z,59.61
2023-04-23T06:47:52.485Z,59.58
2023-04-23T06:50:19.550Z,58.94
2023-04-23T06:52:46.993Z,58.80
2023-04-23T06:55:13.939Z,58.26
2023-04-23T06:57:41.647Z,57.07
2023-04-23T07:00:09.381Z,57.01
2023-04-23T07:02:39.332Z,56.72
2023-04-23T07:05:07.810Z,56.52
2023-04-23T07:07:37.417Z,55.73
2023-04-23T07:10:05.635Z,55.25
2023-04-23T07:12:33.119Z,54.31
2023-04-23T07:15:00.230Z,54.22
2023-04-23T07:17:27.749Z,54.23
2023-04-23T07:19:54.630Z,53.85
2023-04-23T07:22:22.169Z,52.74
2023-04-23T07:24:49.255Z,52.48
2023-04-23T07:27:16.460Z,51.76
2023-04-23T07:29:43.411Z,50.87
2023-04-23T07:32:11.637Z,49.99
2023-04-23T07:34:39.230Z,48.25
2023-04-23T07:37:06.676Z,47.95
2023-04-23T07:39:34.053Z,47.55
2023-04-23T07:42:02.185Z,46.92
2023-04-23T07:44:29.318Z,46.93
2023-04-23T07:46:56.642Z,45.98
2023-04-23T07:49:23.892Z,46.43
2023-04-23T07:51:51.107Z,45.56
2023-04-23T07:54:18.069Z,45.04
2023-04-23T07:56:45.163Z,44.69
2023-04-23T07:59:12.288Z,41.95
2023-04-23T08:01:39.629Z,41.47
2023-04-23T08:04:07.111Z,41.39
2023-04-23T08:06:35.642Z,41.87
2023-04-23T08:09:06.409Z,40.83
2023-04-23T08:11:34.250Z,40.34
2023-04-23T08:14:01.716Z,40.30
2023-04-23T08:16:30.420Z,40.23
2023-04-23T08:19:05.235Z,39.97
2023-04-23T08:21:34.926Z,39.22
2023-04-23T08:24:03.367Z,38.90
2023-04-23T08:26:31.628Z,37.90
2023-04-23T08:29:00.582Z,37.72
2023-04-23T08:31:27.825Z,37.41
2023-04-23T08:33:56.025Z,37.00
2023-04-23T08:36:23.200Z,36.04
2023-04-23T08:38:50.348Z,36.51
2023-04-23T08:41:22.808Z,36.77
2023-04-23T08:44:01.986Z,37.02
2023-04-23T08:46:33.039Z,36.51
2023-04-23T08:49:02.989Z,35.44
2023-04-23T08:51:32.959Z,34.44
2023-04-23T08:54:04.878Z,35.22
2023-04-23T08:56:32.744Z,35.65
2023-04-23T08:59:00.041Z,35.38
2023-04-23T09:01:28.004Z,35.27
2023-04-23T09:03:55.514Z,34.72
2023-04-23T09:06:23.323Z,35.25
2023-04-23T09:08:51.556Z,34.74
2023-04-23T09:11:20.648Z,34.86
2023-04-23T09:13:47.618Z,34.72
2023-04-23T09:16:15.487Z,34.88
2023-04-23T09:18:42.424Z,35.26
2023-04-23T09:21:10.882Z,35.53
2023-04-23T09:23:41.436Z,34.67
2023-04-23T09:26:08.791Z,35.24
2023-04-23T09:28:36.494Z,35.48
2023-04-23T09:31:07.861Z,35.42
2023-04-23T09:33:36.510Z,34.90
2023-04-23T09:36:15.640Z,34.28
2023-04-23T09:38:43.152Z,33.49
2023-04-23T09:41:27.030Z,33.70
2023-04-23T09:43:57.671Z,33.83
2023-04-23T09:46:38.262Z,34.22
2023-04-23T09:49:10.414Z,34.03
2023-04-23T09:51:40.409Z,34.83
2023-04-23T09:54:27.970Z,33.94
2023-04-23T09:57:00.910Z,34.13
2023-04-23T09:59:46.750Z,33.94
2023-04-23T10:02:14.937Z,33.51
2023-04-23T10:04:42.672Z,32.74
2023-04-23T10:07:20.451Z,33.18
2023-04-23T10:09:48.336Z,33.67
2023-04-23T10:12:35.710Z,32.97
2023-04-23T10:15:06.018Z,32.79
2023-04-23T10:17:38.304Z,33.49
2023-04-23T10:20:09.910Z,32.70
2023-04-23T10:22:38.861Z,33.08
2023-04-23T10:25:12.168Z,32.71
2023-04-23T10:27:53.230Z,31.70
2023-04-23T10:30:22.931Z,32.03
2023-04-23T10:32:50.966Z,32.64
2023-04-23T10:35:18.686Z,33.53
2023-04-23T10:37:48.537Z,33.78
2023-04-23T10:40:22.055Z,33.61
2023-04-23T10:42:50.101Z,32.67
2023-04-23T10:47:49.111Z,33.84
2023-04-23T10:50:23.194Z,33.22
2023-04-23T10:52:54.541Z,33.33
2023-04-23T10:55:23.168Z,32.98
2023-04-23T10:58:16.666Z,32.23
2023-04-23T11:00:46.646Z,31.85
2023-04-23T11:03:34.687Z,32.06
2023-04-23T11:06:05.877Z,32.32
2023-04-23T11:08:36.085Z,32.61
2023-04-23T11:11:07.940Z,32.29
2023-04-23T11:13:35.576Z,32.15
2023-04-23T11:16:16.700Z,30.83
2023-04-23T11:19:05.262Z,31.66
2023-04-23T11:22:03.320Z,31.11
2023-04-23T11:24:44.693Z,31.11
2023-04-23T11:27:17.412Z,31.25
2023-04-23T11:29:46.709Z,30.94
2023-04-23T11:32:16.589Z,30.97
2023-04-23T11:34:46.093Z,30.92
2023-04-23T11:37:15.532Z,31.56
2023-04-23T11:39:44.541Z,31.62
2023-04-23T11:42:17.359Z,30.92
2023-04-23T11:44:45.699Z,31.43
2023-04-23T11:47:14.742Z,30.59
2023-04-23T11:49:44.670Z,30.15
2023-04-23T11:52:12.797Z,29.94
2023-04-23T11:54:41.403Z,29.91
2023-04-23T11:57:08.969Z,30.43
2023-04-23T11:59:36.162Z,30.71
2023-04-23T12:02:03.435Z,30.91
2023-04-23T12:04:32.246Z,30.79
2023-04-23T12:07:00.163Z,30.20
2023-04-23T12:09:29.623Z,29.18
2023-04-23T12:11:58.884Z,29.57
2023-04-23T12:14:31.309Z,29.95
2023-04-23T12:17:08.847Z,30.23
2023-04-23T12:19:36.634Z,30.36
2023-04-23T12:22:04.530Z,30.15
2023-04-23T12:24:46.965Z,30.19
2023-04-23T12:27:16.818Z,30.06
2023-04-23T12:29:47.363Z,29.43
2023-04-23T12:32:15.627Z,29.27
2023-04-23T12:34:56.119Z,29.48
2023-04-23T12:37:31.137Z,30.21
2023-04-23T12:39:59.682Z,30.36
2023-04-23T12:42:27.182Z,29.45
2023-04-23T12:44:56.477Z,30.23
2023-04-23T12:47:23.604Z,30.33
2023-04-23T12:49:53.899Z,29.83
2023-04-23T12:52:21.503Z,30.13
2023-04-23T12:54:52.789Z,29.88
2023-04-23T12:57:23.562Z,29.97
2023-04-23T12:59:50.982Z,29.40
2023-04-23T13:02:18.124Z,29.60
2023-04-23T13:04:46.322Z,29.33
2023-04-23T13:07:13.940Z,30.91
2023-04-23T13:09:42.253Z,29.95
2023-04-23T13:12:09.569Z,30.14
2023-04-23T13:14:36.794Z,29.18
2023-04-23T13:17:04.169Z,28.68
2023-04-23T13:19:31.685Z,29.10
2023-04-23T13:21:58.552Z,29.21
2023-04-23T13:24:25.686Z,28.81
2023-04-23T13:26:52.514Z,28.93
2023-04-23T13:29:19.827Z,29.25
2023-04-23T13:31:47.174Z,29.09
2023-04-23T13:34:14.481Z,28.85
2023-04-23T13:36:41.781Z,29.20
2023-04-23T13:39:10.120Z,29.51
2023-04-23T13:41:37.128Z,29.57
2023-04-23T13:44:04.341Z,29.64
2023-04-23T13:46:32.173Z,29.70
2023-04-23T13:49:01.177Z,29.80
2023-04-23T13:51:35.247Z,29.62
2023-04-23T13:54:03.785Z,29.67
2023-04-23T13:56:31.750Z,28.48
2023-04-23T13:59:18.846Z,29.09
2023-04-23T14:01:51.582Z,29.10
2023-04-23T14:04:21.195Z,29.47
2023-04-23T14:06:48.069Z,29.21
2023-04-23T14:09:15.771Z,29.29
2023-04-23T14:11:42.907Z,29.63
2023-04-23T14:14:10.671Z,29.33
2023-04-23T14:16:37.607Z,29.48
2023-04-23T14:19:04.962Z,29.30
2023-04-23T14:21:31.883Z,29.70
2023-04-23T14:24:07.169Z,29.90
2023-04-23T14:26:47.825Z,29.66
2023-04-23T14:29:34.775Z,30.13
2023-04-23T14:32:02.479Z,29.84
2023-04-23T14:34:29.793Z,29.08
2023-04-23T14:36:56.986Z,28.87
2023-04-23T14:39:26.340Z,29.48
2023-04-23T14:41:53.489Z,29.77
2023-04-23T14:44:23.438Z,29.75
2023-04-23T14:46:51.433Z,30.00
2023-04-23T14:49:20.984Z,29.73
2023-04-23T14:51:55.793Z,29.83
2023-04-23T14:54:23.778Z,30.04
2023-04-23T14:56:52.022Z,30.00
2023-04-23T14:59:19.843Z,29.89
2023-04-23T15:01:46.760Z,30.43
2023-04-23T15:04:14.780Z,30.45
2023-04-23T15:06:41.996Z,29.75
2023-04-23T15:09:09.409Z,30.20
2023-04-23T15:11:37.951Z,29.89
2023-04-23T15:14:05.699Z,29.26
2023-04-23T15:19:12.174Z,25.72
2023-04-23T15:21:39.593Z,25.04
2023-04-23T15:24:07.950Z,24.24
2023-04-23T15:26:36.399Z,23.07
2023-04-23T15:29:05.150Z,23.04
2023-04-23T15:31:32.273Z,23.05
2023-04-23T15:33:59.640Z,23.94
2023-04-23T15:36:26.618Z,24.44
2023-04-23T15:38:54.278Z,25.77
2023-04-23T15:41:21.989Z,27.22
2023-04-23T15:43:50.482Z,27.91
2023-04-23T15:46:17.525Z,28.20
2023-04-23T15:48:44.900Z,28.51
2023-04-23T15:51:11.978Z,28.85
2023-04-23T15:53:39.596Z,29.27
2023-04-23T15:56:06.574Z,29.35
2023-04-23T15:58:34.111Z,29.51
2023-04-23T16:01:02.135Z,29.65
2023-04-23T16:03:29.922Z,29.71
2023-04-23T16:05:56.912Z,29.56
2023-04-23T16:08:24.714Z,28.84
2023-04-23T16:10:51.686Z,28.49
2023-04-23T16:13:18.989Z,28.18
2023-04-23T16:15:46.124Z,29.04
2023-04-23T16:18:13.680Z,29.46
2023-04-23T16:20:41.452Z,29.70
2023-04-23T16:23:08.606Z,29.85
2023-04-23T16:25:37.170Z,30.03
2023-04-23T16:28:04.999Z,30.17
2023-04-23T16:30:32.198Z,29.92
2023-04-23T16:32:59.461Z,29.68
2023-04-23T16:35:26.942Z,29.83
2023-04-23T16:37:54.559Z,30.00
2023-04-23T16:40:21.623Z,30.48
2023-04-23T16:42:49.183Z,30.66
2023-04-23T16:45:16.756Z,30.45
2023-04-23T16:47:44.457Z,30.16
2023-04-23T16:50:11.986Z,29.45
2023-04-23T16:52:39.231Z,29.36
2023-04-23T16:55:07.171Z,29.35
2023-04-23T16:57:36.622Z,30.09
2023-04-23T17:00:05.187Z,30.65
2023-04-23T17:02:32.918Z,31.33
2023-04-23T17:05:00.195Z,31.97
2023-04-23T17:07:27.275Z,32.13
2023-04-23T17:09:54.768Z,32.58
2023-04-23T17:12:22.684Z,32.45
2023-04-23T17:14:49.549Z,33.11
2023-04-23T17:17:17.049Z,33.37
2023-04-23T17:19:45.679Z,33.58
2023-04-23T17:22:14.011Z,33.90
2023-04-23T17:24:41.306Z,34.16
2023-04-23T17:27:08.965Z,34.05
2023-04-23T17:29:36.130Z,33.95
2023-04-23T17:32:04.558Z,34.13
2023-04-23T17:34:31.549Z,34.30
2023-04-23T17:36:59.071Z,34.22
2023-04-23T17:39:26.226Z,34.51
2023-04-23T17:41:54.639Z,34.43
2023-04-23T17:44:21.530Z,34.77
2023-04-23T17:46:49.123Z,34.79
2023-04-23T17:49:16.588Z,34.87
2023-04-23T17:51:44.030Z,34.98
2023-04-23T17:54:11.456Z,34.92
2023-04-23T17:56:40.160Z,35.36
2023-04-23T17:59:07.324Z,35.51
2023-04-23T18:01:34.743Z,35.48
2023-04-23T18:04:02.121Z,35.75
2023-04-23T18:06:29.795Z,36.07
2023-04-23T18:08:57.033Z,36.23
2023-04-23T18:11:24.587Z,36.43
2023-04-23T18:13:53.510Z,36.49
2023-04-23T18:16:21.128Z,36.80
2023-04-23T18:18:49.420Z,36.87
2023-04-23T18:21:18.237Z,37.00
2023-04-23T18:23:45.582Z,37.04
2023-04-23T18:26:13.044Z,37.17
2023-04-23T18:28:40.345Z,37.22
2023-04-23T18:31:07.872Z,37.50
2023-04-23T18:33:42.179Z,37.75
2023-04-23T18:36:31.654Z,37.71
2023-04-23T18:38:59.540Z,37.78
2023-04-23T18:41:29.866Z,37.99
2023-04-23T18:43:57.205Z,38.11
2023-04-23T18:46:24.703Z,38.41
2023-04-23T18:48:52.442Z,38.46
2023-04-23T18:51:26.542Z,38.61
2023-04-23T18:53:54.092Z,38.67
2023-04-23T18:56:21.388Z,38.53
2023-04-23T18:58:52.588Z,38.51
2023-04-23T19:01:20.902Z,38.75
2023-04-23T19:03:48.375Z,38.73
2023-04-23T19:06:15.995Z,38.67
2023-04-23T19:08:42.925Z,38.85
2023-04-23T19:11:10.365Z,39.11
2023-04-23T19:13:37.564Z,39.23
2023-04-23T19:16:04.821Z,39.24
2023-04-23T19:18:32.128Z,39.37
2023-04-23T19:20:59.435Z,39.67
2023-04-23T19:23:26.520Z,39.46
2023-04-23T19:25:53.776Z,39.52
2023-04-23T19:28:20.917Z,39.60
2023-04-23T19:30:48.111Z,39.77
2023-04-23T19:33:15.459Z,39.71
2023-04-23T19:35:42.940Z,39.83
2023-04-23T19:38:10.128Z,39.88
2023-04-23T19:40:37.472Z,40.07
2023-04-23T19:43:05.328Z,40.31
2023-04-23T19:45:33.177Z,40.31
2023-04-23T19:48:00.748Z,40.48
2023-04-23T19:50:27.972Z,40.66
2023-04-23T19:52:54.983Z,40.70
2023-04-23T19:55:26.978Z,40.71
2023-04-23T19:57:55.427Z,40.85
2023-04-23T20:00:27.044Z,41.00
2023-04-23T20:02:55.787Z,41.17
2023-04-23T20:05:23.076Z,41.12
2023-04-23T20:07:50.353Z,41.26
2023-04-23T20:10:17.777Z,41.42
2023-04-23T20:12:44.721Z,41.52
2023-04-23T20:15:12.776Z,41.66
2023-04-23T20:17:41.096Z,41.81
2023-04-23T20:20:09.487Z,41.85
2023-04-23T20:22:36.408Z,42.13
2023-04-23T20:25:05.287Z,42.12
2023-04-23T20:27:33.337Z,42.18
2023-04-23T20:30:00.841Z,42.47
2023-04-23T20:32:27.743Z,42.43
2023-04-23T20:34:55.046Z,42.64
2023-04-23T20:37:22.020Z,42.69
2023-04-23T20:39:50.040Z,42.78
2023-04-23T20:42:17.062Z,42.66
2023-04-23T20:44:47.038Z,42.89
2023-04-23T20:47:14.328Z,43.20
2023-04-23T20:49:41.783Z,43.06
2023-04-23T20:52:09.123Z,43.14
2023-04-23T20:54:36.499Z,43.25
2023-04-23T20:57:03.969Z,43.40
2023-04-23T20:59:31.258Z,43.60
2023-04-23T21:01:58.940Z,43.70
2023-04-23T21:04:26.207Z,43.94
2023-04-23T21:06:53.370Z,43.89
2023-04-23T21:09:21.112Z,43.80
2023-04-23T21:11:48.352Z,44.17
2023-04-23T21:14:15.672Z,44.41
2023-04-23T21:16:42.984Z,44.44
2023-04-23T21:19:10.256Z,44.59
2023-04-23T21:21:37.295Z,44.69
2023-04-23T21:24:04.749Z,44.93
2023-04-23T21:26:32.630Z,45.27
2023-04-23T21:28:59.769Z,45.10
2023-04-23T21:31:30.414Z,44.79
2023-04-23T21:33:57.796Z,44.88
2023-04-23T21:36:24.822Z,45.21
2023-04-23T21:38:53.131Z,44.98
2023-04-23T21:41:20.301Z,45.23
2023-04-23T21:43:47.625Z,45.17
2023-04-23T21:46:14.716Z,44.93
2023-04-23T21:48:42.118Z,44.99
2023-04-23T21:51:09.000Z,45.18
2023-04-23T21:53:36.094Z,45.47
2023-04-23T21:56:03.327Z,45.58
2023-04-23T21:58:32.694Z,45.75
2023-04-23T22:01:00.781Z,45.64
2023-04-23T22:03:37.805Z,45.76
2023-04-23T22:06:07.294Z,46.01
2023-04-23T22:08:34.849Z,45.93
2023-04-23T22:11:01.654Z,46.28
2023-04-23T22:13:28.876Z,46.29
2023-04-23T22:15:57.322Z,46.28
2023-04-23T22:18:25.568Z,46.58
2023-04-23T22:20:53.123Z,46.94
2023-04-23T22:23:20.621Z,47.19
2023-04-23T22:25:47.678Z,47.25
2023-04-23T22:28:15.346Z,47.41
2023-04-23T22:30:42.602Z,47.51
2023-04-23T22:33:10.334Z,47.80
2023-04-23T22:35:37.175Z,47.86
2023-04-23T22:38:05.479Z,47.86
2023-04-23T22:40:32.548Z,48.01
2023-04-23T22:43:00.130Z,48.14
2023-04-23T22:45:27.024Z,48.13
2023-04-23T22:47:54.884Z,48.46
2023-04-23T22:50:22.318Z,49.10
2023-04-23T22:52:49.838Z,49.73
2023-04-23T22:55:16.941Z,49.55
2023-04-23T22:57:44.353Z,49.61
2023-04-23T23:00:12.971Z,50.10
2023-04-23T23:02:40.375Z,50.27
2023-04-23T23:05:07.794Z,50.36
2023-04-23T23:07:35.040Z,50.73
2023-04-23T23:10:03.727Z,50.98
2023-04-23T23:12:30.982Z,51.05
2023-04-23T23:14:58.195Z,51.19
2023-04-23T23:17:25.507Z,51.39
2023-04-23T23:19:52.680Z,51.58
2023-04-23T23:22:19.943Z,51.85
2023-04-23T23:24:47.081Z,52.50
2023-04-23T23:27:14.242Z,52.54
2023-04-23T23:29:41.757Z,52.48
2023-04-23T23:32:09.384Z,52.59
2023-04-23T23:34:36.486Z,52.89
2023-04-23T23:37:03.621Z,52.85
2023-04-23T23:39:30.834Z,52.82
2023-04-23T23:41:59.709Z,52.93
2023-04-23T23:44:27.602Z,52.97
2023-04-23T23:46:54.813Z,52.93
2023-04-23T23:49:22.538Z,53.04
2023-04-23T23:51:49.632Z,53.24
2023-04-23T23:54:16.548Z,53.51
2023-04-23T23:56:43.808Z,54.48
2023-04-23T23:59:10.886Z,54.46
